createdAt,value
2023-05-12T00:04:44.631Z,11.97
2023-05-12T00:10:06.657Z,11.82
2023-05-12T00:15:28.428Z,11.67
2023-05-12T00:20:50.433Z,11.59
2023-05-12T00:26:12.073Z,11.46
2023-05-12T00:31:33.818Z,11.34
2023-05-12T00:36:55.531Z,11.28
2023-05-12T00:42:17.454Z,11.16
2023-05-12T00:47:40.069Z,11.06
2023-05-12T00:53:02.136Z,10.97
2023-05-12T00:58:24.111Z,10.82
2023-05-12T01:03:46.349Z,10.70
2023-05-12T01:09:08.852Z,10.58
2023-05-12T01:14:31.343Z,10.48
2023-05-12T01:19:55.386Z,10.42
2023-05-12T01:25:19.869Z,10.36
2023-05-12T01:30:42.625Z,10.31
2023-05-12T01:36:06.251Z,10.28
2023-05-12T01:41:32.078Z,10.23
2023-05-12T01:46:53.966Z,10.20
2023-05-12T01:52:16.453Z,10.13
2023-05-12T01:57:38.041Z,10.06
2023-05-12T02:02:59.996Z,10.04
2023-05-12T02:08:21.835Z,10.00
2023-05-12T02:13:46.643Z,9.97
2023-05-12T02:19:08.865Z,9.92
2023-05-12T02:24:31.234Z,9.86
2023-05-12T02:29:54.128Z,9.81
2023-05-12T02:35:16.734Z,9.75
2023-05-12T02:40:38.843Z,9.72
2023-05-12T02:46:00.930Z,9.69
2023-05-12T02:51:23.377Z,9.66
2023-05-12T02:56:44.865Z,9.61
2023-05-12T03:02:07.217Z,9.54
2023-05-12T03:07:29.404Z,9.48
2023-05-12T03:12:51.203Z,9.42
2023-05-12T03:18:15.280Z,9.39
2023-05-12T03:23:37.489Z,9.38
2023-05-12T03:28:59.417Z,9.40
2023-05-12T03:34:21.040Z,9.44
2023-05-12T03:39:43.881Z,9.46
2023-05-12T03:45:07.182Z,9.49
2023-05-12T03:50:29.055Z,9.55
2023-05-12T03:55:51.337Z,9.58
2023-05-12T04:01:13.317Z,9.62
2023-05-12T04:06:36.786Z,9.67
2023-05-12T04:11:59.052Z,9.72
2023-05-12T04:17:20.840Z,9.80
2023-05-12T04:22:44.421Z,9.90
2023-05-12T04:28:10.079Z,10.00
2023-05-12T04:33:40.687Z,10.10
2023-05-12T04:39:02.601Z,10.25
2023-05-12T04:44:24.481Z,10.40
2023-05-12T04:49:46.434Z,10.56
2023-05-12T04:55:09.910Z,10.76
2023-05-12T05:00:31.966Z,11.00
2023-05-12T05:05:55.421Z,11.21
2023-05-12T05:11:18.025Z,11.45
2023-05-12T05:16:40.722Z,11.64
2023-05-12T05:22:02.421Z,11.76
2023-05-12T05:27:24.269Z,11.88
2023-05-12T05:32:46.379Z,12.02
2023-05-12T05:38:08.095Z,12.19
2023-05-12T05:43:30.263Z,12.39
2023-05-12T05:48:52.912Z,12.61
2023-05-12T05:54:15.106Z,12.78
2023-05-12T05:59:37.073Z,12.95
2023-05-12T06:05:00.266Z,13.16
2023-05-12T06:10:22.463Z,13.40
2023-05-12T06:15:45.649Z,13.57
2023-05-12T06:21:09.568Z,13.70
2023-05-12T06:26:31.420Z,13.81
2023-05-12T06:31:53.283Z,13.95
2023-05-12T06:37:14.925Z,14.14
2023-05-12T06:42:39.576Z,14.35
2023-05-12T06:48:06.086Z,14.54
2023-05-12T06:53:27.922Z,14.68
2023-05-12T06:58:49.993Z,14.95
2023-05-12T07:04:11.950Z,15.21
2023-05-12T07:09:34.050Z,15.43
2023-05-12T07:14:56.295Z,15.62
2023-05-12T07:20:20.130Z,15.81
2023-05-12T07:25:44.235Z,16.01
2023-05-12T07:31:07.383Z,16.20
2023-05-12T07:36:29.607Z,16.33
2023-05-12T07:41:53.602Z,16.46
2023-05-12T07:47:16.037Z,16.62
2023-05-12T07:52:46.653Z,16.87
2023-05-12T07:58:08.554Z,17.10
2023-05-12T08:03:30.374Z,17.20
2023-05-12T08:08:52.000Z,17.39
2023-05-12T08:14:14.048Z,17.65
2023-05-12T08:19:35.960Z,17.95
2023-05-12T08:24:57.799Z,18.09
2023-05-12T08:30:19.324Z,18.26
2023-05-12T08:35:41.330Z,18.42
2023-05-12T08:41:11.103Z,18.72
2023-05-12T08:46:33.614Z,18.94
2023-05-12T08:51:58.168Z,19.17
2023-05-12T08:57:22.234Z,19.35
2023-05-12T09:02:53.102Z,19.35
2023-05-12T09:08:15.825Z,19.29
2023-05-12T09:13:56.600Z,19.41
2023-05-12T09:19:21.649Z,19.70
2023-05-12T09:24:43.535Z,19.80
2023-05-12T09:30:08.408Z,19.91
2023-05-12T09:35:30.246Z,20.02
2023-05-12T09:40:51.968Z,20.09
2023-05-12T09:46:14.822Z,20.05
2023-05-12T09:51:36.730Z,19.85
2023-05-12T09:57:03.760Z,19.46
2023-05-12T10:02:26.341Z,19.28
2023-05-12T10:07:50.981Z,19.16
2023-05-12T10:13:14.399Z,19.25
2023-05-12T10:18:36.402Z,19.23
2023-05-12T10:24:01.677Z,19.15
2023-05-12T10:29:30.301Z,19.45
2023-05-12T10:34:52.754Z,19.42
2023-05-12T10:40:24.643Z,19.32
2023-05-12T10:45:46.524Z,19.21
2023-05-12T10:51:10.168Z,19.27
2023-05-12T10:56:43.977Z,19.79
2023-05-12T11:02:15.798Z,19.82
2023-05-12T11:07:37.971Z,19.85
2023-05-12T11:13:00.842Z,20.04
2023-05-12T11:18:24.398Z,20.16
2023-05-12T11:23:51.024Z,20.30
2023-05-12T11:29:12.542Z,20.13
2023-05-12T11:34:34.596Z,20.52
2023-05-12T11:39:56.838Z,20.39
2023-05-12T11:45:29.390Z,20.21
2023-05-12T11:50:51.438Z,20.05
2023-05-12T11:56:23.952Z,19.80
2023-05-12T12:01:48.832Z,19.62
2023-05-12T12:07:10.866Z,19.55
2023-05-12T12:12:32.905Z,19.60
2023-05-12T12:17:54.671Z,19.70
2023-05-12T12:23:16.648Z,19.58
2023-05-12T12:28:41.792Z,19.40
2023-05-12T12:34:07.506Z,19.46
2023-05-12T12:39:29.201Z,19.45
2023-05-12T12:44:51.561Z,19.47
2023-05-12T12:50:14.050Z,19.46
2023-05-12T12:55:36.671Z,19.30
2023-05-12T13:00:59.320Z,19.20
2023-05-12T13:06:23.240Z,19.21
2023-05-12T13:11:45.099Z,19.23
2023-05-12T13:17:08.343Z,19.27
2023-05-12T13:22:30.217Z,19.46
2023-05-12T13:27:52.747Z,19.73
2023-05-12T13:33:14.980Z,19.83
2023-05-12T13:38:42.197Z,19.71
2023-05-12T13:44:04.092Z,19.60
2023-05-12T13:49:27.162Z,19.83
2023-05-12T13:54:49.355Z,20.07
2023-05-12T14:00:11.747Z,20.20
2023-05-12T14:05:39.239Z,20.00
2023-05-12T14:11:01.348Z,19.81
2023-05-12T14:16:23.210Z,19.83
2023-05-12T14:21:45.490Z,19.79
2023-05-12T14:27:07.760Z,19.65
2023-05-12T14:32:32.195Z,19.43
2023-05-12T14:37:54.581Z,19.19
2023-05-12T14:43:17.112Z,19.27
2023-05-12T14:48:38.957Z,19.37
2023-05-12T14:54:01.578Z,19.47
2023-05-12T14:59:25.112Z,19.54
2023-05-12T15:04:48.747Z,19.45
2023-05-12T15:10:11.091Z,19.22
2023-05-12T15:15:34.123Z,19.01
2023-05-12T15:20:56.345Z,18.73
2023-05-12T15:26:31.906Z,18.53
2023-05-12T15:31:55.505Z,18.42
2023-05-12T15:37:18.389Z,18.48
2023-05-12T15:42:40.971Z,18.69
2023-05-12T15:48:03.798Z,18.77
2023-05-12T15:53:25.783Z,18.78
2023-05-12T15:58:48.113Z,18.78
2023-05-12T16:04:10.081Z,18.73
2023-05-12T16:09:32.069Z,18.59
2023-05-12T16:14:54.098Z,18.54
2023-05-12T16:20:18.240Z,18.50
2023-05-12T16:25:42.176Z,18.45
2023-05-12T16:31:05.005Z,18.40
2023-05-12T16:36:26.836Z,18.36
2023-05-12T16:41:48.658Z,18.32
2023-05-12T16:47:10.195Z,18.32
2023-05-12T16:52:31.867Z,18.19
2023-05-12T16:57:53.750Z,18.07
2023-05-12T17:03:15.858Z,17.95
2023-05-12T17:08:40.155Z,17.78
2023-05-12T17:14:21.279Z,17.63
2023-05-12T17:20:40.494Z,17.53
2023-05-12T17:26:08.256Z,17.41
2023-05-12T17:31:30.337Z,17.29
2023-05-12T17:36:53.311Z,17.16
2023-05-12T17:42:15.237Z,17.05
2023-05-12T17:47:37.289Z,16.90
2023-05-12T17:53:03.695Z,16.75
2023-05-12T17:58:26.551Z,16.63
2023-05-12T18:03:48.370Z,16.53
2023-05-12T18:09:10.507Z,16.42
2023-05-12T18:14:45.391Z,16.30
2023-05-12T18:20:47.159Z,16.17
2023-05-12T18:26:50.932Z,16.01
2023-05-12T18:32:21.922Z,15.91
2023-05-12T18:38:06.900Z,15.82
2023-05-12T18:44:07.661Z,15.70
2023-05-12T18:49:34.805Z,15.58
2023-05-12T18:54:58.814Z,15.49
2023-05-12T19:00:42.351Z,15.41
2023-05-12T19:06:04.576Z,15.31
2023-05-12T19:11:35.037Z,15.22
2023-05-12T19:17:39.341Z,15.13
2023-05-12T19:23:42.507Z,15.02
2023-05-12T19:29:31.951Z,14.92
2023-05-12T19:35:20.650Z,14.82
2023-05-12T19:40:45.688Z,14.73
2023-05-12T19:46:07.838Z,14.68
2023-05-12T19:51:29.940Z,14.57
2023-05-12T19:56:56.997Z,14.52
2023-05-12T20:03:18.949Z,14.45
2023-05-12T20:08:44.288Z,14.34
2023-05-12T20:14:06.273Z,14.27
2023-05-12T20:19:28.033Z,14.20
2023-05-12T20:24:49.565Z,14.15
2023-05-12T20:30:12.759Z,14.10
2023-05-12T20:35:34.754Z,14.07
2023-05-12T20:40:56.648Z,14.01
2023-05-12T20:46:18.556Z,13.96
2023-05-12T20:51:40.711Z,13.88
2023-05-12T20:57:02.536Z,13.82
2023-05-12T21:02:25.775Z,13.76
2023-05-12T21:07:47.513Z,13.70
2023-05-12T21:13:09.536Z,13.66
2023-05-12T21:18:31.504Z,13.62
2023-05-12T21:23:53.283Z,13.58
2023-05-12T21:29:15.224Z,13.53
2023-05-12T21:34:37.025Z,13.48
2023-05-12T21:39:59.338Z,13.42
2023-05-12T21:45:21.667Z,13.37
2023-05-12T21:50:43.481Z,13.29
2023-05-12T21:56:06.145Z,13.25
2023-05-12T22:01:30.207Z,13.23
2023-05-12T22:06:51.894Z,13.24
2023-05-12T22:12:17.840Z,13.19
2023-05-12T22:18:58.410Z,13.18
2023-05-12T22:24:19.899Z,13.14
2023-05-12T22:29:41.877Z,13.21
2023-05-12T22:35:03.976Z,13.27
2023-05-12T22:40:27.254Z,13.27
2023-05-12T22:45:52.503Z,13.30
2023-05-12T22:51:14.173Z,13.35
2023-05-12T22:56:35.903Z,13.35
2023-05-12T23:01:57.784Z,13.38
2023-05-12T23:07:19.414Z,13.35
2023-05-12T23:12:41.335Z,13.36
2023-05-12T23:18:03.430Z,13.32
2023-05-12T23:23:25.152Z,13.30
2023-05-12T23:28:47.114Z,13.21
2023-05-12T23:34:09.045Z,12.99
2023-05-12T23:39:31.326Z,12.91
2023-05-12T23:44:54.284Z,12.80
2023-05-12T23:50:16.262Z,12.65
2023-05-12T23:55:38.385Z,12.55
